createdAt,value
2017-09-30T00:01:08.748Z,76.80
2017-09-30T00:03:36.192Z,76.50
2017-09-30T00:06:03.633Z,76.30
2017-09-30T00:08:31.076Z,76.30
2017-09-30T00:10:58.525Z,76.30
2017-09-30T00:13:25.972Z,76.40
2017-09-30T00:15:53.412Z,76.30
2017-09-30T00:18:20.857Z,76.50
2017-09-30T00:20:48.296Z,76.50
2017-09-30T00:23:15.807Z,76.50
2017-09-30T00:25:43.241Z,76.60
2017-09-30T00:28:10.686Z,76.40
2017-09-30T00:30:38.133Z,77.10
2017-09-30T00:33:05.578Z,76.50
2017-09-30T00:35:33.024Z,76.70
2017-09-30T00:38:00.459Z,76.40
2017-09-30T00:40:27.917Z,76.60
2017-09-30T00:42:55.356Z,76.80
2017-09-30T00:45:22.796Z,76.90
2017-09-30T00:47:50.232Z,77.00
2017-09-30T00:50:17.685Z,77.20
2017-09-30T00:52:45.129Z,77.10
2017-09-30T00:55:12.571Z,77.30
2017-09-30T00:57:40.009Z,77.40
2017-09-30T01:00:07.462Z,78.10
2017-09-30T01:02:34.909Z,78.60
2017-09-30T01:05:02.351Z,79.10
2017-09-30T01:07:29.788Z,79.20
2017-09-30T01:09:57.242Z,78.90
2017-09-30T01:12:24.685Z,78.30
2017-09-30T01:14:52.137Z,78.30
2017-09-30T01:17:19.682Z,78.60
2017-09-30T01:19:47.123Z,78.50
2017-09-30T01:22:14.668Z,78.20
2017-09-30T01:24:42.112Z,78.10
2017-09-30T01:27:09.565Z,77.90
2017-09-30T01:29:37.778Z,77.70
2017-09-30T01:32:05.211Z,77.70
2017-09-30T01:34:32.660Z,77.40
2017-09-30T01:37:00.105Z,77.20
2017-09-30T01:39:27.551Z,77.30
2017-09-30T01:41:54.990Z,77.10
2017-09-30T01:44:22.432Z,77.40
2017-09-30T01:46:49.868Z,77.80
2017-09-30T01:49:17.308Z,77.50
2017-09-30T01:51:44.744Z,77.70
2017-09-30T01:54:12.192Z,77.60
2017-09-30T01:56:39.635Z,77.40
2017-09-30T01:59:07.108Z,77.40
2017-09-30T02:01:34.547Z,77.90
2017-09-30T02:04:01.984Z,78.10
2017-09-30T02:06:29.416Z,78.10
2017-09-30T02:08:56.863Z,78.10
2017-09-30T02:11:25.059Z,77.80
2017-09-30T02:13:52.500Z,77.80
2017-09-30T02:16:19.945Z,78.00
2017-09-30T02:18:48.161Z,77.90
2017-09-30T02:21:15.606Z,77.90
2017-09-30T02:23:43.052Z,78.10
2017-09-30T02:26:10.495Z,78.20
2017-09-30T02:28:37.929Z,78.20
2017-09-30T02:31:05.377Z,78.40
2017-09-30T02:33:32.812Z,78.00
2017-09-30T02:36:00.256Z,78.00
2017-09-30T02:38:27.690Z,78.40
2017-09-30T02:40:55.149Z,78.20
2017-09-30T02:43:22.587Z,78.20
2017-09-30T02:45:50.036Z,78.00
2017-09-30T02:48:17.472Z,78.90
2017-09-30T02:50:44.914Z,78.20
2017-09-30T02:53:12.353Z,78.00
2017-09-30T02:55:39.812Z,78.10
2017-09-30T02:58:07.256Z,78.40
2017-09-30T03:00:34.709Z,78.40
2017-09-30T03:03:02.157Z,78.50
2017-09-30T03:05:29.606Z,78.10
2017-09-30T03:07:57.048Z,78.50
2017-09-30T03:10:24.492Z,78.10
2017-09-30T03:12:51.937Z,78.20
2017-09-30T03:15:19.377Z,78.50
2017-09-30T03:17:46.816Z,78.60
2017-09-30T03:20:14.264Z,78.60
2017-09-30T03:22:41.713Z,79.10
2017-09-30T03:25:09.146Z,79.30
2017-09-30T03:27:36.589Z,79.20
2017-09-30T03:30:04.042Z,78.80
2017-09-30T03:32:32.243Z,78.50
2017-09-30T03:34:59.697Z,78.50
2017-09-30T03:37:27.133Z,78.40
2017-09-30T03:39:54.581Z,78.60
2017-09-30T03:42:22.020Z,78.50
2017-09-30T03:44:49.572Z,78.80
2017-09-30T03:47:16.996Z,79.00
2017-09-30T03:49:44.445Z,79.00
2017-09-30T03:52:11.894Z,79.40
2017-09-30T03:54:39.343Z,79.20
2017-09-30T03:57:06.780Z,79.40
2017-09-30T03:59:34.219Z,79.20
2017-09-30T04:02:01.657Z,79.00
2017-09-30T04:04:29.109Z,79.10
2017-09-30T04:06:56.544Z,78.80
2017-09-30T04:09:23.983Z,78.50
2017-09-30T04:11:51.416Z,78.30
2017-09-30T04:14:18.852Z,78.10
2017-09-30T04:16:46.296Z,78.30
2017-09-30T04:19:13.734Z,78.20
2017-09-30T04:21:41.176Z,78.00
2017-09-30T04:24:08.617Z,78.00
2017-09-30T04:26:36.055Z,78.10
2017-09-30T04:29:03.501Z,77.90
2017-09-30T04:31:30.964Z,77.90
2017-09-30T04:33:58.394Z,78.00
2017-09-30T04:36:25.844Z,77.70
2017-09-30T04:38:53.280Z,77.80
2017-09-30T04:41:20.734Z,78.00
2017-09-30T04:43:48.181Z,78.00
2017-09-30T04:46:15.668Z,78.00
2017-09-30T04:48:43.113Z,78.00
2017-09-30T04:51:10.559Z,78.10
2017-09-30T04:53:38.764Z,79.50
2017-09-30T04:56:06.223Z,79.20
2017-09-30T04:58:33.664Z,79.40
2017-09-30T05:01:01.112Z,78.90
2017-09-30T05:03:28.544Z,78.70
2017-09-30T05:05:56.095Z,78.60
2017-09-30T05:08:23.520Z,78.30
2017-09-30T05:10:50.959Z,78.70
2017-09-30T05:13:18.404Z,78.60
2017-09-30T05:15:45.845Z,78.10
2017-09-30T05:18:13.297Z,79.00
2017-09-30T05:20:40.727Z,78.80
2017-09-30T05:23:08.174Z,78.40
2017-09-30T05:25:35.608Z,78.80
2017-09-30T05:28:03.056Z,79.10
2017-09-30T05:30:30.513Z,78.80
2017-09-30T05:32:57.985Z,78.80
2017-09-30T05:35:25.419Z,79.20
2017-09-30T05:37:52.871Z,79.60
2017-09-30T05:40:20.313Z,79.90
2017-09-30T05:42:47.770Z,79.90
2017-09-30T05:45:15.204Z,79.60
2017-09-30T05:47:42.656Z,79.60
2017-09-30T05:50:10.368Z,79.50
2017-09-30T05:52:37.800Z,79.40
2017-09-30T05:55:05.240Z,79.00
2017-09-30T05:57:32.684Z,79.00
2017-09-30T06:00:00.116Z,78.60
2017-09-30T06:02:27.608Z,78.40
2017-09-30T06:04:55.052Z,78.20
2017-09-30T06:07:22.532Z,78.40
2017-09-30T06:09:49.979Z,78.50
2017-09-30T06:12:17.417Z,78.20
2017-09-30T06:14:44.864Z,77.50
2017-09-30T06:17:12.309Z,77.70
2017-09-30T06:19:39.754Z,78.00
2017-09-30T06:22:07.188Z,78.30
2017-09-30T06:24:34.627Z,77.30
2017-09-30T06:27:02.066Z,78.00
2017-09-30T06:29:29.515Z,77.50
2017-09-30T06:31:56.956Z,77.90
2017-09-30T06:34:24.406Z,77.70
2017-09-30T06:36:51.840Z,77.50
2017-09-30T06:39:19.280Z,77.20
2017-09-30T06:41:46.715Z,76.80
2017-09-30T06:44:14.933Z,76.80
2017-09-30T06:46:42.368Z,76.90
2017-09-30T06:49:09.807Z,76.10
2017-09-30T06:51:37.247Z,75.70
2017-09-30T06:54:04.712Z,75.80
2017-09-30T06:56:32.147Z,75.50
2017-09-30T06:58:59.625Z,75.20
2017-09-30T07:01:27.904Z,75.50
2017-09-30T07:06:29.236Z,75.70
2017-09-30T07:08:56.676Z,76.30
2017-09-30T07:11:24.120Z,76.00
2017-09-30T07:13:52.338Z,74.90
2017-09-30T07:16:19.781Z,74.90
2017-09-30T07:18:47.220Z,74.60
2017-09-30T07:21:14.656Z,74.70
2017-09-30T07:23:42.096Z,74.70
2017-09-30T07:26:09.540Z,74.90
2017-09-30T07:28:36.995Z,74.30
2017-09-30T07:31:04.436Z,73.90
2017-09-30T07:33:31.884Z,72.90
2017-09-30T07:35:59.329Z,72.80
2017-09-30T07:38:26.759Z,72.70
2017-09-30T07:40:54.213Z,72.80
2017-09-30T07:43:21.657Z,73.50
2017-09-30T07:45:49.108Z,74.40
2017-09-30T07:48:16.563Z,74.80
2017-09-30T07:50:44.768Z,75.00
2017-09-30T07:53:12.627Z,74.90
2017-09-30T07:55:40.084Z,75.10
2017-09-30T07:58:08.288Z,75.10
2017-09-30T08:00:36.625Z,75.10
2017-09-30T08:03:04.081Z,75.00
2017-09-30T08:05:31.503Z,75.10
2017-09-30T08:07:58.943Z,75.20
2017-09-30T08:10:26.381Z,74.70
2017-09-30T08:12:53.840Z,74.00
2017-09-30T08:15:21.272Z,74.60
2017-09-30T08:17:48.720Z,74.10
2017-09-30T08:20:16.160Z,73.90
2017-09-30T08:22:43.617Z,73.40
2017-09-30T08:25:11.083Z,73.00
2017-09-30T08:27:38.523Z,73.00
2017-09-30T08:30:05.965Z,72.60
2017-09-30T08:32:34.179Z,72.30
2017-09-30T08:35:01.651Z,72.30
2017-09-30T08:37:29.861Z,72.80
2017-09-30T08:39:57.299Z,72.70
2017-09-30T08:42:24.752Z,72.10
2017-09-30T08:44:52.192Z,71.40
2017-09-30T08:47:19.637Z,71.20
2017-09-30T08:49:47.080Z,70.50
2017-09-30T08:52:14.542Z,69.80
2017-09-30T08:54:41.977Z,69.50
2017-09-30T08:57:09.435Z,69.30
2017-09-30T08:59:36.877Z,69.60
2017-09-30T09:02:04.321Z,69.10
2017-09-30T09:04:31.769Z,69.00
2017-09-30T09:06:59.208Z,68.30
2017-09-30T09:09:26.647Z,68.20
2017-09-30T09:11:54.088Z,68.00
2017-09-30T09:14:21.536Z,66.40
2017-09-30T09:16:48.980Z,67.00
2017-09-30T09:19:16.434Z,66.90
2017-09-30T09:21:43.868Z,66.20
2017-09-30T09:24:11.317Z,66.30
2017-09-30T09:26:38.774Z,64.50
2017-09-30T09:29:06.985Z,64.30
2017-09-30T09:31:34.431Z,64.20
2017-09-30T09:34:01.864Z,63.20
2017-09-30T09:36:29.335Z,62.60
2017-09-30T09:38:56.777Z,62.20
2017-09-30T09:41:24.243Z,61.30
2017-09-30T09:43:51.672Z,60.70
2017-09-30T09:46:19.107Z,61.30
2017-09-30T09:48:46.548Z,61.20
2017-09-30T09:51:14.018Z,60.00
2017-09-30T09:53:42.220Z,58.80
2017-09-30T09:56:09.655Z,58.70
2017-09-30T09:58:37.103Z,59.40
2017-09-30T10:01:04.555Z,58.10
2017-09-30T10:06:05.959Z,58.00
2017-09-30T10:08:33.400Z,58.20
2017-09-30T10:11:01.001Z,57.90
2017-09-30T10:13:28.424Z,57.30
2017-09-30T10:15:55.868Z,57.40
2017-09-30T10:18:23.316Z,57.20
2017-09-30T10:20:50.764Z,56.60
2017-09-30T10:23:18.232Z,56.80
2017-09-30T10:25:45.705Z,56.60
2017-09-30T10:28:13.136Z,56.50
2017-09-30T10:30:41.344Z,56.80
2017-09-30T10:33:08.833Z,56.80
2017-09-30T10:35:36.259Z,55.30
2017-09-30T10:38:03.700Z,56.10
2017-09-30T10:40:31.146Z,55.70
2017-09-30T10:42:58.568Z,55.80
2017-09-30T10:45:26.011Z,56.10
2017-09-30T10:47:53.447Z,55.20
2017-09-30T10:50:20.893Z,55.50
2017-09-30T10:52:48.344Z,54.10
2017-09-30T10:55:15.784Z,54.60
2017-09-30T10:57:43.221Z,54.60
2017-09-30T11:00:10.659Z,53.90
2017-09-30T11:02:38.644Z,54.40
2017-09-30T11:05:06.082Z,54.70
2017-09-30T11:07:33.527Z,54.20
2017-09-30T11:10:00.976Z,54.70
2017-09-30T11:12:29.180Z,55.20
2017-09-30T11:14:56.621Z,55.20
2017-09-30T11:17:24.064Z,55.10
2017-09-30T11:19:51.499Z,55.10
2017-09-30T11:22:18.952Z,55.60
2017-09-30T11:24:46.396Z,54.40
2017-09-30T11:27:13.853Z,55.30
2017-09-30T11:29:41.290Z,55.90
2017-09-30T11:32:08.804Z,55.40
2017-09-30T11:34:37.002Z,54.90
2017-09-30T11:37:04.442Z,54.90
2017-09-30T11:39:31.889Z,54.00
2017-09-30T11:42:00.083Z,54.20
2017-09-30T11:44:27.508Z,54.50
2017-09-30T11:46:54.945Z,55.00
2017-09-30T11:49:22.371Z,54.40
2017-09-30T11:51:49.810Z,54.30
2017-09-30T11:54:17.250Z,53.20
2017-09-30T11:56:44.725Z,52.60
2017-09-30T11:59:12.161Z,52.30
2017-09-30T12:01:39.592Z,52.40
2017-09-30T12:04:07.030Z,50.90
2017-09-30T12:06:34.470Z,51.20
2017-09-30T12:09:01.912Z,51.40
2017-09-30T12:11:29.335Z,51.60
2017-09-30T12:13:56.763Z,50.90
2017-09-30T12:16:24.210Z,50.40
2017-09-30T12:18:51.647Z,51.00
2017-09-30T12:21:19.068Z,51.80
2017-09-30T12:23:47.283Z,51.30
2017-09-30T12:26:14.727Z,51.30
2017-09-30T12:28:42.151Z,49.90
2017-09-30T12:31:09.576Z,49.90
2017-09-30T12:33:37.020Z,50.70
2017-09-30T12:36:05.204Z,51.10
2017-09-30T12:38:32.639Z,50.40
2017-09-30T12:41:00.088Z,50.50
2017-09-30T12:43:27.508Z,50.20
2017-09-30T12:45:54.940Z,49.80
2017-09-30T12:48:22.379Z,50.00
2017-09-30T12:50:50.680Z,49.40
2017-09-30T12:53:18.103Z,49.40
2017-09-30T12:55:45.533Z,49.30
2017-09-30T12:58:12.967Z,49.10
2017-09-30T13:00:40.404Z,48.80
2017-09-30T13:03:08.604Z,48.90
2017-09-30T13:05:36.036Z,48.90
2017-09-30T13:08:03.511Z,50.30
2017-09-30T13:10:30.953Z,51.00
2017-09-30T13:12:58.480Z,51.90
2017-09-30T13:15:25.924Z,52.50
2017-09-30T13:17:53.365Z,53.30
2017-09-30T13:20:20.835Z,53.90
2017-09-30T13:22:48.272Z,54.80
2017-09-30T13:25:15.711Z,54.70
2017-09-30T13:27:43.146Z,55.00
2017-09-30T13:30:10.589Z,55.30
2017-09-30T13:32:38.021Z,55.80
2017-09-30T13:35:05.481Z,55.70
2017-09-30T13:37:32.912Z,55.80
2017-09-30T13:40:00.356Z,55.50
2017-09-30T13:42:27.872Z,55.30
2017-09-30T13:44:55.310Z,55.10
2017-09-30T13:47:22.777Z,55.50
2017-09-30T13:49:50.208Z,55.30
2017-09-30T13:52:17.649Z,55.20
2017-09-30T13:54:45.090Z,55.70
2017-09-30T13:57:12.516Z,55.60
2017-09-30T13:59:39.971Z,55.30
2017-09-30T14:02:07.404Z,56.00
2017-09-30T14:04:34.836Z,55.40
2017-09-30T14:07:03.047Z,55.50
2017-09-30T14:09:30.484Z,55.50
2017-09-30T14:11:58.028Z,55.70
2017-09-30T14:14:25.499Z,56.20
2017-09-30T14:16:52.944Z,55.50
2017-09-30T14:19:20.380Z,55.50
2017-09-30T14:21:47.844Z,56.10
2017-09-30T14:24:15.268Z,56.00
2017-09-30T14:26:42.727Z,56.20
2017-09-30T14:29:10.938Z,55.70
2017-09-30T14:31:38.364Z,55.20
2017-09-30T14:34:05.802Z,55.30
2017-09-30T14:36:33.255Z,55.10
2017-09-30T14:39:00.680Z,54.60
2017-09-30T14:41:28.172Z,54.90
2017-09-30T14:43:55.612Z,55.20
2017-09-30T14:46:23.056Z,55.40
2017-09-30T14:48:51.252Z,54.40
2017-09-30T14:51:19.479Z,54.60
2017-09-30T14:53:46.916Z,54.40
2017-09-30T14:56:14.368Z,54.60
2017-09-30T14:58:41.804Z,55.00
2017-09-30T15:01:09.258Z,54.90
2017-09-30T15:03:38.211Z,55.90
2017-09-30T15:06:05.632Z,55.80
2017-09-30T15:08:33.081Z,56.10
2017-09-30T15:11:00.511Z,57.20
2017-09-30T15:13:27.999Z,56.60
2017-09-30T15:15:55.436Z,56.70
2017-09-30T15:18:22.887Z,57.20
2017-09-30T15:20:50.333Z,57.10
2017-09-30T15:23:17.817Z,56.80
2017-09-30T15:25:45.261Z,56.90
2017-09-30T15:28:12.695Z,57.00
2017-09-30T15:30:40.204Z,57.30
2017-09-30T15:33:08.425Z,56.30
2017-09-30T15:35:35.853Z,56.40
2017-09-30T15:38:03.305Z,56.50
2017-09-30T15:40:30.741Z,56.70
2017-09-30T15:42:58.189Z,56.70
2017-09-30T15:45:25.673Z,56.80
2017-09-30T15:47:53.115Z,57.10
2017-09-30T15:50:20.552Z,57.20
2017-09-30T15:52:48.008Z,57.30
2017-09-30T15:55:15.440Z,57.30
2017-09-30T15:57:42.889Z,57.10
2017-09-30T16:00:10.325Z,57.30
2017-09-30T16:02:37.894Z,57.60
2017-09-30T16:05:05.327Z,57.60
2017-09-30T16:07:32.770Z,57.80
2017-09-30T16:10:00.280Z,58.00
2017-09-30T16:12:27.757Z,58.10
2017-09-30T16:14:55.181Z,58.00
2017-09-30T16:17:22.625Z,58.40
2017-09-30T16:19:50.068Z,58.50
2017-09-30T16:22:18.276Z,59.00
2017-09-30T16:24:45.723Z,59.00
2017-09-30T16:27:13.166Z,59.20
2017-09-30T16:29:40.663Z,59.60
2017-09-30T16:32:08.210Z,59.70
2017-09-30T16:34:35.652Z,60.00
2017-09-30T16:37:03.097Z,60.50
2017-09-30T16:39:30.566Z,61.00
2017-09-30T16:41:58.764Z,61.50
2017-09-30T16:44:26.203Z,61.50
2017-09-30T16:46:53.640Z,61.90
2017-09-30T16:49:21.075Z,62.20
2017-09-30T16:51:48.517Z,62.70
2017-09-30T16:54:16.015Z,63.00
2017-09-30T16:56:43.453Z,63.30
2017-09-30T16:59:11.718Z,63.70
2017-09-30T17:01:39.169Z,63.80
2017-09-30T17:04:06.611Z,63.70
2017-09-30T17:06:34.055Z,64.10
2017-09-30T17:09:01.497Z,64.00
2017-09-30T17:11:28.943Z,64.50
2017-09-30T17:13:56.401Z,64.30
2017-09-30T17:16:24.617Z,64.40
2017-09-30T17:18:52.184Z,64.40
2017-09-30T17:21:19.869Z,63.90
2017-09-30T17:23:48.064Z,64.40
2017-09-30T17:26:15.596Z,64.40
2017-09-30T17:28:43.033Z,64.00
2017-09-30T17:31:10.471Z,63.80
2017-09-30T17:33:37.956Z,64.00
2017-09-30T17:36:06.977Z,64.20
2017-09-30T17:38:34.437Z,64.20
2017-09-30T17:41:01.883Z,64.30
2017-09-30T17:43:29.316Z,64.60
2017-09-30T17:45:56.759Z,64.70
2017-09-30T17:48:24.259Z,64.60
2017-09-30T17:50:51.803Z,65.50
2017-09-30T17:53:19.253Z,64.80
2017-09-30T17:55:46.695Z,65.00
2017-09-30T17:58:14.146Z,64.20
2017-09-30T18:00:42.360Z,64.60
2017-09-30T18:03:09.798Z,64.50
2017-09-30T18:05:37.241Z,64.70
2017-09-30T18:08:04.672Z,64.50
2017-09-30T18:10:32.108Z,64.70
2017-09-30T18:12:59.568Z,64.80
2017-09-30T18:15:26.995Z,64.60
2017-09-30T18:17:54.443Z,64.40
2017-09-30T18:20:21.875Z,64.80
2017-09-30T18:22:50.137Z,64.90
2017-09-30T18:25:17.628Z,65.10
2017-09-30T18:27:45.078Z,65.00
2017-09-30T18:30:14.023Z,65.80
2017-09-30T18:32:41.514Z,65.80
2017-09-30T18:35:09.718Z,65.50
2017-09-30T18:37:37.152Z,65.50
2017-09-30T18:40:04.594Z,65.80
2017-09-30T18:42:32.028Z,65.90
2017-09-30T18:44:59.474Z,65.40
2017-09-30T18:47:27.819Z,64.20
2017-09-30T18:49:55.287Z,63.80
2017-09-30T18:52:22.741Z,63.90
2017-09-30T18:54:50.187Z,63.80
2017-09-30T18:57:17.637Z,63.00
2017-09-30T18:59:45.064Z,61.90
2017-09-30T19:02:12.521Z,62.00
2017-09-30T19:04:39.952Z,61.30
2017-09-30T19:07:07.414Z,61.10
2017-09-30T19:09:34.914Z,61.00
2017-09-30T19:12:02.339Z,63.40
2017-09-30T19:14:29.784Z,66.60
2017-09-30T19:16:57.978Z,72.00
2017-09-30T19:19:25.460Z,71.90
2017-09-30T19:21:52.930Z,74.30
2017-09-30T19:24:21.167Z,75.20
2017-09-30T19:26:48.604Z,75.20
2017-09-30T19:29:16.060Z,76.60
2017-09-30T19:31:44.308Z,76.80
2017-09-30T19:34:11.758Z,76.90
2017-09-30T19:36:39.194Z,76.40
2017-09-30T19:39:06.631Z,77.20
2017-09-30T19:41:34.064Z,76.60
2017-09-30T19:44:01.500Z,76.00
2017-09-30T19:46:28.936Z,76.20
2017-09-30T19:48:56.385Z,75.80
2017-09-30T19:51:23.817Z,76.70
2017-09-30T19:53:51.264Z,76.90
2017-09-30T19:56:18.697Z,78.20
2017-09-30T19:58:46.142Z,78.10
2017-09-30T20:01:13.583Z,78.80
2017-09-30T20:03:41.040Z,78.20
2017-09-30T20:06:08.484Z,79.60
2017-09-30T20:08:35.940Z,79.00
2017-09-30T20:11:03.379Z,79.20
2017-09-30T20:13:30.820Z,78.60
2017-09-30T20:15:58.376Z,79.50
2017-09-30T20:18:26.205Z,79.00
2017-09-30T20:20:53.642Z,79.30
2017-09-30T20:23:21.089Z,79.90
2017-09-30T20:25:48.605Z,78.90
2017-09-30T20:28:16.039Z,77.70
2017-09-30T20:30:43.511Z,79.30
2017-09-30T20:33:11.008Z,78.80
2017-09-30T20:35:38.460Z,79.40
2017-09-30T20:38:06.665Z,79.60
2017-09-30T20:40:34.873Z,80.50
2017-09-30T20:43:03.084Z,80.50
2017-09-30T20:45:30.527Z,79.80
2017-09-30T20:47:57.956Z,81.00
2017-09-30T20:50:25.411Z,80.80
2017-09-30T20:52:52.849Z,80.40
2017-09-30T20:55:20.365Z,80.30
2017-09-30T20:57:48.559Z,80.50
2017-09-30T21:00:16.035Z,80.40
2017-09-30T21:02:43.567Z,80.00
2017-09-30T21:05:11.016Z,80.40
2017-09-30T21:07:38.449Z,81.00
2017-09-30T21:10:05.900Z,80.20
2017-09-30T21:12:33.343Z,80.20
2017-09-30T21:15:00.779Z,80.50
2017-09-30T21:17:28.391Z,79.40
2017-09-30T21:19:55.884Z,77.60
2017-09-30T21:22:23.297Z,77.20
2017-09-30T21:24:50.742Z,77.40
2017-09-30T21:27:18.998Z,77.20
2017-09-30T21:29:46.416Z,77.20
2017-09-30T21:32:13.875Z,77.40
2017-09-30T21:34:41.314Z,75.60
2017-09-30T21:37:08.741Z,77.10
2017-09-30T21:39:36.164Z,77.10
2017-09-30T21:42:04.368Z,76.40
2017-09-30T21:44:31.828Z,76.40
2017-09-30T21:46:59.278Z,75.90
2017-09-30T21:49:26.720Z,76.40
2017-09-30T21:51:54.172Z,76.30
2017-09-30T21:54:21.680Z,75.80
2017-09-30T21:56:49.104Z,76.00
2017-09-30T21:59:16.535Z,76.00
2017-09-30T22:01:44.016Z,73.40
2017-09-30T22:04:11.444Z,74.00
2017-09-30T22:06:38.888Z,74.00
2017-09-30T22:09:06.307Z,73.50
2017-09-30T22:11:33.909Z,72.80
2017-09-30T22:14:01.349Z,72.70
2017-09-30T22:16:30.276Z,73.60
2017-09-30T22:18:57.763Z,73.60
2017-09-30T22:21:25.195Z,73.70
2017-09-30T22:23:52.652Z,73.10
2017-09-30T22:26:20.095Z,73.40
2017-09-30T22:28:47.537Z,73.50
2017-09-30T22:31:14.985Z,72.90
2017-09-30T22:33:42.425Z,72.10
2017-09-30T22:36:09.871Z,72.30
2017-09-30T22:38:37.303Z,73.20
2017-09-30T22:41:04.752Z,72.70
2017-09-30T22:43:32.192Z,72.20
2017-09-30T22:45:59.620Z,72.90
2017-09-30T22:48:27.062Z,73.00
2017-09-30T22:50:54.511Z,72.70
2017-09-30T22:53:21.952Z,72.90
2017-09-30T22:55:49.390Z,73.50
2017-09-30T22:58:16.824Z,73.90
2017-09-30T23:00:44.248Z,73.00
2017-09-30T23:03:11.703Z,73.30
2017-09-30T23:05:39.151Z,74.30
2017-09-30T23:08:06.600Z,73.30
2017-09-30T23:10:34.039Z,73.60
2017-09-30T23:13:01.481Z,75.10
2017-09-30T23:15:28.933Z,74.00
2017-09-30T23:17:56.368Z,73.60
2017-09-30T23:20:23.807Z,74.00
2017-09-30T23:22:51.236Z,74.00
2017-09-30T23:25:18.676Z,74.90
2017-09-30T23:27:46.108Z,75.40
2017-09-30T23:30:13.649Z,75.20
2017-09-30T23:32:41.075Z,74.40
2017-09-30T23:35:09.283Z,74.00
2017-09-30T23:37:36.726Z,74.00
2017-09-30T23:40:04.156Z,74.20
2017-09-30T23:42:31.587Z,75.60
2017-09-30T23:44:59.032Z,75.60
2017-09-30T23:47:26.460Z,75.10
2017-09-30T23:49:53.955Z,74.50
2017-09-30T23:52:21.397Z,75.80
2017-09-30T23:54:48.833Z,75.90
2017-09-30T23:57:16.260Z,74.30
2017-09-30T23:59:43.691Z,74.40
